Time;durP1;ratioP1;P1;durP2;ratioP2;P2;SDS_P1;SDS_P2;PMS_P1;PMS_P2;Temp;Humidity;BMP_temperature;BMP_pressure;BME280_temperature;BME280_humidity;BME280_pressure;Samples;Min_cycle;Max_cycle;Signal;HPM_P1;HPM_P2
2022/09/13 00:00:03;;;;;;;1999.90;999.90;;;;;;;-144.65;100.00;64500.88;5013041;28;20038;-77
2022/09/13 00:02:28;;;;;;;1999.90;999.90;;;;;;;-144.65;100.00;64500.88;5013094;28;20398;-77
2022/09/13 00:04:54;;;;;;;1999.90;999.90;;;;;;;-144.65;100.00;64500.88;4995635;28;20099;-75
2022/09/13 00:07:19;;;;;;;1999.90;999.90;;;;;;;-144.65;100.00;64500.88;5017500;28;20026;-76
2022/09/13 00:09:45;;;;;;;1999.90;999.90;;;;;;;-144.65;100.00;64500.88;5022696;28;20029;-76
2022/09/13 00:12:10;;;;;;;1999.90;999.90;;;;;;;-144.65;100.00;64500.88;5018595;28;20026;-77
2022/09/13 00:14:35;;;;;;;1999.90;999.90;;;;;;;-144.65;100.00;64500.88;5013331;28;20497;-77
2022/09/13 00:17:01;;;;;;;1999.90;999.90;;;;;;;-144.65;100.00;64500.88;5016741;28;20026;-77
2022/09/13 00:19:26;;;;;;;1999.90;999.90;;;;;;;-144.65;100.00;64500.88;5019068;28;20089;-77
2022/09/13 00:21:51;;;;;;;1999.90;999.90;;;;;;;-144.65;100.00;64500.88;5023681;28;20026;-79
2022/09/13 00:24:16;;;;;;;1999.90;999.90;;;;;;;-144.65;100.00;64500.88;5025940;28;20029;-78
2022/09/13 00:26:42;;;;;;;1999.90;999.90;;;;;;;-144.65;100.00;64500.88;5025405;28;20078;-78
2022/09/13 00:29:07;;;;;;;1999.90;999.90;;;;;;;-144.65;100.00;64500.88;5019111;28;20034;-78
2022/09/13 00:31:33;;;;;;;1999.90;999.90;;;;;;;-144.65;100.00;64500.88;5019536;28;20076;-77
2022/09/13 00:33:59;;;;;;;1999.90;999.90;;;;;;;-144.65;100.00;64500.88;5020212;28;20026;-79
2022/09/13 00:36:24;;;;;;;1999.90;999.90;;;;;;;-144.65;100.00;64500.88;5024660;28;20062;-78
2022/09/13 00:38:50;;;;;;;1999.90;999.90;;;;;;;-144.65;100.00;64500.88;5023923;28;20033;-78
2022/09/13 00:41:17;;;;;;;1999.90;999.90;;;;;;;-144.65;100.00;64500.88;5019892;28;20072;-78
2022/09/13 00:43:55;;;;;;;1999.90;999.90;;;;;;;-144.65;100.00;64500.88;5019888;28;20794;-78
2022/09/13 00:46:36;;;;;;;1999.90;999.90;;;;;;;-144.65;100.00;64500.88;5019770;28;20045;-77
2022/09/13 00:49:13;;;;;;;1999.90;999.90;;;;;;;-144.65;100.00;64500.88;5019789;28;20052;-77
2022/09/13 00:51:42;;;;;;;1999.90;999.90;;;;;;;-144.65;100.00;64500.88;5017072;28;20086;-77
2022/09/13 00:54:08;;;;;;;1999.90;999.90;;;;;;;-144.65;100.00;64500.88;5016728;28;20060;-77
2022/09/13 00:56:42;;;;;;;1999.90;999.90;;;;;;;-144.65;100.00;64500.88;5016228;28;20026;-77
2022/09/13 00:59:24;;;;;;;1999.90;999.90;;;;;;;-144.65;100.00;64500.88;5016597;28;20033;-77
2022/09/13 01:01:53;;;;;;;1999.90;999.90;;;;;;;-144.65;100.00;64500.88;5016024;28;20057;-76
2022/09/13 01:04:21;;;;;;;1999.90;999.90;;;;;;;-144.65;100.00;64500.88;5017059;28;20022;-77
2022/09/13 01:06:50;;;;;;;1999.90;999.90;;;;;;;-144.65;100.00;64500.88;5016447;28;20061;-77
2022/09/13 01:09:15;;;;;;;1999.90;999.90;;;;;;;-144.65;100.00;64500.88;5016465;28;20049;-79
2022/09/13 01:12:03;;;;;;;1999.90;999.90;;;;;;;-144.65;100.00;64500.88;5016431;28;20053;-77
2022/09/13 01:14:29;;;;;;;1999.90;999.90;;;;;;;-144.65;100.00;64500.88;5016006;28;20030;-77
2022/09/13 01:16:55;;;;;;;1999.90;999.90;;;;;;;-144.65;100.00;64500.88;5016086;28;20037;-77
2022/09/13 01:19:20;;;;;;;1999.90;999.90;;;;;;;-144.65;100.00;64500.88;5015605;28;20026;-77
2022/09/13 01:22:13;;;;;;;1999.90;999.90;;;;;;;-144.65;100.00;64500.88;5015246;28;20038;-77
2022/09/13 01:24:50;;;;;;;1999.90;999.90;;;;;;;-144.65;100.00;64500.88;5016124;28;20406;-77
2022/09/13 01:27:29;;;;;;;1999.90;999.90;;;;;;;-144.65;100.00;64500.88;5015467;28;20026;-77
2022/09/13 01:30:04;;;;;;;1999.90;999.90;;;;;;;-144.65;100.00;64500.88;5015496;28;20112;-76
2022/09/13 01:32:32;;;;;;;1999.90;999.90;;;;;;;-144.65;100.00;64500.88;4997654;28;20035;-77
2022/09/13 01:35:25;;;;;;;1999.90;999.90;;;;;;;-144.65;100.00;64500.88;5015652;28;20064;-76
2022/09/13 01:38:02;;;;;;;1999.90;999.90;;;;;;;-144.65;100.00;64500.88;5015045;28;20026;-77
2022/09/13 01:41:09;;;;;;;1999.90;999.90;;;;;;;-144.65;100.00;64500.88;4998003;28;20097;-77
2022/09/13 01:43:50;;;;;;;1999.90;999.90;;;;;;;-144.65;100.00;64500.88;5016002;28;20028;-77
2022/09/13 01:46:43;;;;;;;1999.90;999.90;;;;;;;-144.65;100.00;64500.88;5016552;28;20026;-77
2022/09/13 01:49:27;;;;;;;1999.90;999.90;;;;;;;-144.65;100.00;64500.88;5015943;28;20022;-77
2022/09/13 01:52:41;;;;;;;1999.90;999.90;;;;;;;-144.65;100.00;64500.88;5011280;28;20041;-77
2022/09/13 01:55:26;;;;;;;1999.90;999.90;;;;;;;-144.65;100.00;64500.88;4929991;28;20044;-77
2022/09/13 01:58:19;;;;;;;1999.90;999.90;;;;;;;-144.65;100.00;64500.88;5014296;28;20054;-75
2022/09/13 02:00:53;;;;;;;1999.90;999.90;;;;;;;-144.65;100.00;64500.88;5016432;28;20427;-77
2022/09/13 02:03:30;;;;;;;1999.90;999.90;;;;;;;-144.65;100.00;64500.88;5004079;28;20030;-78
2022/09/13 02:06:02;;;;;;;1999.90;999.90;;;;;;;-144.65;100.00;64500.88;5019848;28;20455;-77
2022/09/13 02:08:41;;;;;;;1999.90;999.90;;;;;;;-144.65;100.00;64500.88;5023663;28;20033;-79
2022/09/13 02:11:12;;;;;;;1999.90;999.90;;;;;;;-144.65;100.00;64500.88;5006873;28;20033;-80
2022/09/13 02:13:47;;;;;;;1999.90;999.90;;;;;;;-144.65;100.00;64500.88;5019500;28;20033;-80
2022/09/13 02:16:24;;;;;;;1999.90;999.90;;;;;;;-144.65;100.00;64500.88;5015919;28;20038;-79
2022/09/13 02:18:57;;;;;;;1999.90;999.90;;;;;;;-144.65;100.00;64500.88;5025464;28;20267;-76
2022/09/13 02:21:28;;;;;;;1999.90;999.90;;;;;;;-144.65;100.00;64500.88;5015064;28;20018;-76
2022/09/13 02:24:00;;;;;;;1999.90;999.90;;;;;;;-144.65;100.00;64500.88;5016493;28;20018;-77
2022/09/13 02:26:29;;;;;;;1999.90;999.90;;;;;;;-144.65;100.00;64500.88;5018517;28;20057;-76
2022/09/13 02:28:58;;;;;;;1999.90;999.90;;;;;;;-144.65;100.00;64500.88;5016137;28;20348;-75
2022/09/13 02:31:51;;;;;;;1999.90;999.90;;;;;;;-144.65;100.00;64500.88;5013019;28;20026;-76
2022/09/13 02:34:30;;;;;;;1999.90;999.90;;;;;;;-144.65;100.00;64500.88;5012761;28;20034;-76
2022/09/13 02:36:57;;;;;;;1999.90;999.90;;;;;;;-144.65;100.00;64500.88;5012947;28;20079;-76
2022/09/13 02:39:27;;;;;;;1999.90;999.90;;;;;;;-144.65;100.00;64500.88;5013087;28;20113;-75
2022/09/13 02:42:03;;;;;;;1999.90;999.90;;;;;;;-144.65;100.00;64500.88;5012894;28;20038;-77
2022/09/13 02:44:42;;;;;;;1999.90;999.90;;;;;;;-144.65;100.00;64500.88;5012951;28;20041;-76
2022/09/13 02:47:16;;;;;;;1999.90;999.90;;;;;;;-144.65;100.00;64500.88;5012543;28;20108;-76
2022/09/13 02:49:56;;;;;;;1999.90;999.90;;;;;;;-144.65;100.00;64500.88;5012766;28;20034;-76
2022/09/13 02:52:37;;;;;;;1999.90;999.90;;;;;;;-144.65;100.00;64500.88;5012227;28;20487;-75
2022/09/13 02:55:14;;;;;;;1999.90;999.90;;;;;;;-144.65;100.00;64500.88;5012889;28;20144;-77
2022/09/13 02:58:03;;;;;;;1999.90;999.90;;;;;;;-144.65;100.00;64500.88;5012897;28;20057;-77
2022/09/13 03:00:29;;;;;;;1999.90;999.90;;;;;;;-144.65;100.00;64500.88;5000707;28;20022;-76
2022/09/13 03:02:56;;;;;;;1999.90;999.90;;;;;;;-144.65;100.00;64500.88;5014594;28;20033;-75
2022/09/13 03:05:22;;;;;;;1999.90;999.90;;;;;;;-144.65;100.00;64500.88;5016423;28;20018;-76
2022/09/13 03:07:48;;;;;;;1999.90;999.90;;;;;;;-144.65;100.00;64500.88;5016630;28;20029;-76
2022/09/13 03:10:14;;;;;;;1999.90;999.90;;;;;;;-144.65;100.00;64500.88;4998231;28;20509;-76
2022/09/13 03:12:46;;;;;;;1999.90;999.90;;;;;;;-144.65;100.00;64500.88;5011912;28;20026;-75
2022/09/13 03:15:14;;;;;;;1999.90;999.90;;;;;;;-144.65;100.00;64500.88;4994289;28;20026;-76
2022/09/13 03:18:04;;;;;;;1999.90;999.90;;;;;;;-144.65;100.00;64500.88;5012048;28;20037;-76
2022/09/13 03:20:42;;;;;;;1999.90;999.90;;;;;;;-144.65;100.00;64500.88;5012453;28;20730;-77
2022/09/13 03:23:34;;;;;;;1999.90;999.90;;;;;;;-144.65;100.00;64500.88;5012150;28;20033;-75
2022/09/13 03:26:27;;;;;;;1999.90;999.90;;;;;;;-144.65;100.00;64500.88;5013352;28;20030;-76
2022/09/13 03:29:20;;;;;;;1999.90;999.90;;;;;;;-144.65;100.00;64500.88;4995611;28;20034;-77
2022/09/13 03:32:05;;;;;;;1999.90;999.90;;;;;;;-144.65;100.00;64500.88;5013222;28;20026;-76
2022/09/13 03:34:50;;;;;;;1999.90;999.90;;;;;;;-144.65;100.00;64500.88;5013291;28;20050;-76
2022/09/13 03:37:27;;;;;;;1999.90;999.90;;;;;;;-144.65;100.00;64500.88;5012484;28;20029;-78
2022/09/13 03:40:20;;;;;;;1999.90;999.90;;;;;;;-144.65;100.00;64500.88;5012580;28;20030;-76
2022/09/13 03:42:48;;;;;;;1999.90;999.90;;;;;;;-144.65;100.00;64500.88;5005715;28;20446;-75
2022/09/13 03:45:17;;;;;;;1999.90;999.90;;;;;;;-144.65;100.00;64500.88;5015839;28;20022;-76
2022/09/13 03:47:47;;;;;;;1999.90;999.90;;;;;;;-144.65;100.00;64500.88;5039968;28;20044;-75
2022/09/13 03:50:17;;;;;;;1999.90;999.90;;;;;;;-144.65;100.00;64500.88;5037071;28;20021;-77
2022/09/13 03:52:45;;;;;;;1999.90;999.90;;;;;;;-144.65;100.00;64500.88;5040211;28;20022;-77
2022/09/13 03:55:11;;;;;;;1999.90;999.90;;;;;;;-144.65;100.00;64500.88;5035934;28;20029;-76
2022/09/13 03:57:37;;;;;;;1999.90;999.90;;;;;;;-144.65;100.00;64500.88;5035242;28;20025;-78
2022/09/13 04:00:03;;;;;;;1999.90;999.90;;;;;;;-144.65;100.00;64500.88;5018385;28;20036;-76
2022/09/13 04:02:28;;;;;;;1999.90;999.90;;;;;;;-144.65;100.00;64500.88;5019303;28;20510;-75
2022/09/13 04:04:54;;;;;;;1999.90;999.90;;;;;;;-144.65;100.00;64500.88;5023830;28;20105;-77
2022/09/13 04:07:22;;;;;;;1999.90;999.90;;;;;;;-144.65;100.00;64500.88;5032769;28;20065;-77
2022/09/13 04:09:47;;;;;;;1999.90;999.90;;;;;;;-144.65;100.00;64500.88;5035098;28;20079;-76
2022/09/13 04:12:14;;;;;;;1999.90;999.90;;;;;;;-144.65;100.00;64500.88;5036922;28;20025;-76
2022/09/13 04:14:40;;;;;;;1999.90;999.90;;;;;;;-144.65;100.00;64500.88;5040738;28;20030;-77
2022/09/13 04:17:06;;;;;;;1999.90;999.90;;;;;;;-144.65;100.00;64500.88;5022837;28;20068;-76
2022/09/13 04:19:32;;;;;;;1999.90;999.90;;;;;;;-144.65;100.00;64500.88;5007500;28;20377;-76
2022/09/13 04:21:57;;;;;;;1999.90;999.90;;;;;;;-144.65;100.00;64500.88;5015340;28;20442;-76
2022/09/13 04:24:25;;;;;;;1999.90;999.90;;;;;;;-144.65;100.00;64500.88;5009666;28;20035;-77
2022/09/13 04:26:52;;;;;;;1999.90;999.90;;;;;;;-144.65;100.00;64500.88;4977637;28;20487;-76
2022/09/13 04:29:18;;;;;;;1999.90;999.90;;;;;;;-144.65;100.00;64500.88;4994818;28;20474;-76
2022/09/13 04:31:44;;;;;;;1999.90;999.90;;;;;;;-144.65;100.00;64500.88;4995850;28;20173;-77
2022/09/13 04:34:10;;;;;;;1999.90;999.90;;;;;;;-144.65;100.00;64500.88;4968822;28;1128482;-76
2022/09/13 04:36:35;;;;;;;1999.90;999.90;;;;;;;-144.65;100.00;64500.88;5020721;28;20041;-76
2022/09/13 04:39:01;;;;;;;1999.90;999.90;;;;;;;-144.65;100.00;64500.88;5015072;28;20038;-77
2022/09/13 04:41:27;;;;;;;1999.90;999.90;;;;;;;-144.65;100.00;64500.88;5015783;28;20117;-77
2022/09/13 04:43:53;;;;;;;1999.90;999.90;;;;;;;-144.65;100.00;64500.88;4997001;28;20025;-76
2022/09/13 04:46:18;;;;;;;1999.90;999.90;;;;;;;-144.65;100.00;64500.88;5015919;28;20401;-77
2022/09/13 04:48:49;;;;;;;1999.90;999.90;;;;;;;-144.65;100.00;64500.88;5017443;28;20033;-76
2022/09/13 04:51:14;;;;;;;1999.90;999.90;;;;;;;-144.65;100.00;64500.88;5017768;28;20537;-77
2022/09/13 04:53:40;;;;;;;1999.90;999.90;;;;;;;-144.65;100.00;64500.88;5017423;28;20065;-78
2022/09/13 04:56:06;;;;;;;1999.90;999.90;;;;;;;-144.65;100.00;64500.88;5019431;28;20053;-77
2022/09/13 04:58:32;;;;;;;1999.90;999.90;;;;;;;-144.65;100.00;64500.88;5017607;28;20380;-76
2022/09/13 05:01:05;;;;;;;1999.90;999.90;;;;;;;-144.65;100.00;64500.88;5015301;28;20064;-77
2022/09/13 05:03:32;;;;;;;1999.90;999.90;;;;;;;-144.65;100.00;64500.88;4998352;28;20026;-77
2022/09/13 05:06:13;;;;;;;1999.90;999.90;;;;;;;-144.65;100.00;64500.88;5015174;28;20402;-76
2022/09/13 05:08:39;;;;;;;1999.90;999.90;;;;;;;-144.65;100.00;64500.88;5015858;28;20026;-78
2022/09/13 05:11:05;;;;;;;1999.90;999.90;;;;;;;-144.65;100.00;64500.88;4998852;28;20372;-77
2022/09/13 05:13:32;;;;;;;1999.90;999.90;;;;;;;-144.65;100.00;64500.88;5015276;28;20025;-76
2022/09/13 05:16:03;;;;;;;1999.90;999.90;;;;;;;-144.65;100.00;64500.88;5015383;28;20026;-77
2022/09/13 05:18:30;;;;;;;1999.90;999.90;;;;;;;-144.65;100.00;64500.88;5016173;28;20382;-77
2022/09/13 05:20:57;;;;;;;1999.90;999.90;;;;;;;-144.65;100.00;64500.88;5017297;28;20061;-78
2022/09/13 05:23:23;;;;;;;1999.90;999.90;;;;;;;-144.65;100.00;64500.88;5017897;28;20033;-78
2022/09/13 05:26:00;;;;;;;1999.90;999.90;;;;;;;-144.65;100.00;64500.88;5016763;28;21016;-78
2022/09/13 05:28:28;;;;;;;1999.90;999.90;;;;;;;-144.65;100.00;64500.88;5017492;28;20025;-77
2022/09/13 05:31:06;;;;;;;1999.90;999.90;;;;;;;-144.65;100.00;64500.88;5018999;28;20029;-76
2022/09/13 05:33:33;;;;;;;1999.90;999.90;;;;;;;-144.65;100.00;64500.88;5014540;28;20033;-76
2022/09/13 05:35:59;;;;;;;1999.90;999.90;;;;;;;-144.65;100.00;64500.88;5014522;28;20042;-77
2022/09/13 05:38:25;;;;;;;1999.90;999.90;;;;;;;-144.65;100.00;64500.88;5015638;28;20040;-77
2022/09/13 05:40:55;;;;;;;1999.90;999.90;;;;;;;-144.65;100.00;64500.88;5016304;28;20101;-77
2022/09/13 05:43:21;;;;;;;1999.90;999.90;;;;;;;-144.65;100.00;64500.88;5017328;28;20026;-77
2022/09/13 05:45:46;;;;;;;1999.90;999.90;;;;;;;-144.65;100.00;64500.88;5018998;28;21490;-79
2022/09/13 05:48:12;;;;;;;1999.90;999.90;;;;;;;-144.65;100.00;64500.88;5022227;28;20026;-79
2022/09/13 05:50:38;;;;;;;1999.90;999.90;;;;;;;-144.65;100.00;64500.88;5023279;28;20033;-80
2022/09/13 05:53:03;;;;;;;1999.90;999.90;;;;;;;-144.65;100.00;64500.88;5027324;28;20057;-79
2022/09/13 05:55:29;;;;;;;1999.90;999.90;;;;;;;-144.65;100.00;64500.88;5022090;28;20064;-78
2022/09/13 05:57:55;;;;;;;1999.90;999.90;;;;;;;-144.65;100.00;64500.88;5002071;28;20026;-78
2022/09/13 06:00:20;;;;;;;1999.90;999.90;;;;;;;-144.65;100.00;64500.88;5020809;28;20439;-80
2022/09/13 06:02:46;;;;;;;1999.90;999.90;;;;;;;-144.65;100.00;64500.88;5023597;28;20027;-79
2022/09/13 06:05:11;;;;;;;1999.90;999.90;;;;;;;-144.65;100.00;64500.88;5032528;28;20022;-79
2022/09/13 06:07:40;;;;;;;1999.90;999.90;;;;;;;-144.65;100.00;64500.88;5025075;28;20026;-79
2022/09/13 06:10:06;;;;;;;1999.90;999.90;;;;;;;-144.65;100.00;64500.88;5015147;28;20045;-77
2022/09/13 06:12:31;;;;;;;1999.90;999.90;;;;;;;-144.65;100.00;64500.88;5014739;28;20057;-78
2022/09/13 06:14:57;;;;;;;1999.90;999.90;;;;;;;-144.65;100.00;64500.88;5018374;28;20509;-79
2022/09/13 06:17:22;;;;;;;1999.90;999.90;;;;;;;-144.65;100.00;64500.88;5014923;28;20471;-77
2022/09/13 06:19:47;;;;;;;1999.90;999.90;;;;;;;-144.65;100.00;64500.88;4997228;28;20063;-77
2022/09/13 06:22:13;;;;;;;1999.90;999.90;;;;;;;-144.65;100.00;64500.88;5015019;28;20018;-76
2022/09/13 06:24:38;;;;;;;1999.90;999.90;;;;;;;-144.65;100.00;64500.88;5014839;28;20018;-77
2022/09/13 06:27:04;;;;;;;1999.90;999.90;;;;;;;-144.65;100.00;64500.88;5014705;28;20093;-77
2022/09/13 06:29:30;;;;;;;1999.90;999.90;;;;;;;-144.65;100.00;64500.88;5015105;28;20049;-77
2022/09/13 06:31:55;;;;;;;1999.90;999.90;;;;;;;-144.65;100.00;64500.88;5015736;28;20041;-76
2022/09/13 06:34:21;;;;;;;1999.90;999.90;;;;;;;-144.65;100.00;64500.88;5015455;28;20049;-76
2022/09/13 06:36:46;;;;;;;1999.90;999.90;;;;;;;-144.65;100.00;64500.88;5015974;28;20163;-77
2022/09/13 06:39:11;;;;;;;1999.90;999.90;;;;;;;-144.65;100.00;64500.88;5015987;28;20022;-76
2022/09/13 06:41:37;;;;;;;1999.90;999.90;;;;;;;-144.65;100.00;64500.88;5017729;28;20562;-77
2022/09/13 06:44:03;;;;;;;1999.90;999.90;;;;;;;-144.65;100.00;64500.88;5018048;28;20430;-76
2022/09/13 06:46:31;;;;;;;1999.90;999.90;;;;;;;-144.65;100.00;64500.88;5019562;28;20021;-76
2022/09/13 06:49:03;;;;;;;1999.90;999.90;;;;;;;-144.65;100.00;64500.88;5017521;28;20509;-77
2022/09/13 06:51:29;;;;;;;1999.90;999.90;;;;;;;-144.65;100.00;64500.88;5019343;28;20022;-77
2022/09/13 06:53:55;;;;;;;1999.90;999.90;;;;;;;-144.65;100.00;64500.88;5019885;28;20041;-77
2022/09/13 06:56:29;;;;;;;1999.90;999.90;;;;;;;-144.65;100.00;64500.88;4996537;28;20030;-78
2022/09/13 06:58:57;;;;;;;1999.90;999.90;;;;;;;-144.65;100.00;64500.88;5015803;28;20030;-77
2022/09/13 07:01:25;;;;;;;1999.90;999.90;;;;;;;-144.65;100.00;64500.88;5017871;28;20068;-77
2022/09/13 07:03:54;;;;;;;1999.90;999.90;;;;;;;-144.65;100.00;64500.88;5017337;28;20052;-77
2022/09/13 07:06:21;;;;;;;1999.90;999.90;;;;;;;-144.65;100.00;64500.88;5016674;28;20045;-77
2022/09/13 07:08:48;;;;;;;1999.90;999.90;;;;;;;-144.65;100.00;64500.88;5013972;28;20067;-77
2022/09/13 07:11:17;;;;;;;1999.90;999.90;;;;;;;-144.65;100.00;64500.88;5014080;28;20030;-77
2022/09/13 07:13:49;;;;;;;1999.90;999.90;;;;;;;-144.65;100.00;64500.88;5014060;28;20030;-77
2022/09/13 07:16:16;;;;;;;1999.90;999.90;;;;;;;-144.65;100.00;64500.88;5013285;28;20025;-77
2022/09/13 07:18:41;;;;;;;1999.90;999.90;;;;;;;-144.65;100.00;64500.88;4996642;28;20048;-77
2022/09/13 07:21:09;;;;;;;1999.90;999.90;;;;;;;-144.65;100.00;64500.88;5013986;28;20030;-77
2022/09/13 07:23:37;;;;;;;1999.90;999.90;;;;;;;-144.65;100.00;64500.88;5012977;28;20026;-77
2022/09/13 07:26:04;;;;;;;1999.90;999.90;;;;;;;-144.65;100.00;64500.88;5013304;28;20052;-77
2022/09/13 07:28:39;;;;;;;1999.90;999.90;;;;;;;-144.65;100.00;64500.88;5013935;28;20088;-77
2022/09/13 07:31:09;;;;;;;1999.90;999.90;;;;;;;-144.65;100.00;64500.88;5013363;28;20502;-77
2022/09/13 07:33:35;;;;;;;1999.90;999.90;;;;;;;-144.65;100.00;64500.88;5016564;28;20044;-76
2022/09/13 07:36:05;;;;;;;1999.90;999.90;;;;;;;-144.65;100.00;64500.88;5022113;28;20046;-77
2022/09/13 07:38:33;;;;;;;1999.90;999.90;;;;;;;-144.65;100.00;64500.88;5022708;28;20025;-78
2022/09/13 07:40:59;;;;;;;1999.90;999.90;;;;;;;-144.65;100.00;64500.88;5018147;28;20014;-77
2022/09/13 07:43:25;;;;;;;1999.90;999.90;;;;;;;-144.65;100.00;64500.88;5021303;28;20048;-78
2022/09/13 07:45:58;;;;;;;1999.90;999.90;;;;;;;-144.65;100.00;64500.88;5025883;28;20048;-77
2022/09/13 07:48:26;;;;;;;1999.90;999.90;;;;;;;-144.65;100.00;64500.88;5020243;28;20025;-76
2022/09/13 07:51:02;;;;;;;1999.90;999.90;;;;;;;-144.65;100.00;64500.88;5023242;28;20071;-77
2022/09/13 07:53:28;;;;;;;1999.90;999.90;;;;;;;-144.65;100.00;64500.88;5021250;28;20018;-76
2022/09/13 07:55:59;;;;;;;1999.90;999.90;;;;;;;-144.65;100.00;64500.88;5016182;28;20053;-78
2022/09/13 07:58:25;;;;;;;1999.90;999.90;;;;;;;-144.65;100.00;64500.88;5022342;28;20022;-78
2022/09/13 08:00:50;;;;;;;1999.90;999.90;;;;;;;-144.65;100.00;64500.88;5022621;28;20021;-77
2022/09/13 08:03:15;;;;;;;1999.90;999.90;;;;;;;-144.65;100.00;64500.88;5018642;28;20523;-77
2022/09/13 08:05:41;;;;;;;1999.90;999.90;;;;;;;-144.65;100.00;64500.88;5018818;28;20017;-74
2022/09/13 08:08:06;;;;;;;1999.90;999.90;;;;;;;-144.65;100.00;64500.88;5002249;28;20037;-74
2022/09/13 08:10:32;;;;;;;1999.90;999.90;;;;;;;-144.65;100.00;64500.88;5000057;28;20022;-76
2022/09/13 08:12:58;;;;;;;1999.90;999.90;;;;;;;-144.65;100.00;64500.88;5019512;28;21489;-75
2022/09/13 08:15:23;;;;;;;1999.90;999.90;;;;;;;-144.65;100.00;64500.88;5017179;28;20025;-76
2022/09/13 08:17:49;;;;;;;1999.90;999.90;;;;;;;-144.65;100.00;64500.88;5019962;28;20105;-76
2022/09/13 08:20:14;;;;;;;1999.90;999.90;;;;;;;-144.65;100.00;64500.88;5018472;28;20018;-77
2022/09/13 08:22:40;;;;;;;1999.90;999.90;;;;;;;-144.65;100.00;64500.88;5019352;28;20108;-77
2022/09/13 08:25:08;;;;;;;1999.90;999.90;;;;;;;-144.65;100.00;64500.88;5019837;28;20363;-75
2022/09/13 08:27:33;;;;;;;1999.90;999.90;;;;;;;-144.65;100.00;64500.88;5017573;28;20275;-76
2022/09/13 08:29:58;;;;;;;1999.90;999.90;;;;;;;-144.65;100.00;64500.88;5020755;28;20436;-76
2022/09/13 08:32:24;;;;;;;1999.90;999.90;;;;;;;-144.65;100.00;64500.88;5020489;28;20805;-77
2022/09/13 08:34:49;;;;;;;1999.90;999.90;;;;;;;-144.65;100.00;64500.88;5020134;28;20052;-76
2022/09/13 08:37:15;;;;;;;1999.90;999.90;;;;;;;-144.65;100.00;64500.88;5032210;28;20267;-76
2022/09/13 08:39:40;;;;;;;1999.90;999.90;;;;;;;-144.65;100.00;64500.88;5017867;28;20072;-76
2022/09/13 08:42:28;;;;;;;1999.90;999.90;;;;;;;-144.65;100.00;64500.88;5010393;28;20034;-77
2022/09/13 08:44:55;;;;;;;1999.90;999.90;;;;;;;-144.65;100.00;64500.88;4988924;28;20321;-77
2022/09/13 08:47:30;;;;;;;1999.90;999.90;;;;;;;-144.65;100.00;64500.88;5017264;28;20034;-77
2022/09/13 08:50:03;;;;;;;1999.90;999.90;;;;;;;-144.65;100.00;64500.88;4996708;28;20474;-76
2022/09/13 08:52:32;;;;;;;1999.90;999.90;;;;;;;-144.65;100.00;64500.88;5014688;28;20076;-76
2022/09/13 08:55:02;;;;;;;1999.90;999.90;;;;;;;-144.65;100.00;64500.88;5015825;28;20060;-73
2022/09/13 08:57:52;;;;;;;1999.90;999.90;;;;;;;-144.65;100.00;64500.88;5015748;28;20040;-74
2022/09/13 09:00:26;;;;;;;1999.90;999.90;;;;;;;-144.65;100.00;64500.88;5014330;28;20030;-74
2022/09/13 09:03:20;;;;;;;1999.90;999.90;;;;;;;-144.65;100.00;64500.88;5012832;28;20105;-74
2022/09/13 09:05:50;;;;;;;1999.90;999.90;;;;;;;-144.65;100.00;64500.88;5020522;28;20490;-75
2022/09/13 09:08:37;;;;;;;1999.90;999.90;;;;;;;-144.65;100.00;64500.88;5020872;28;20043;-75
2022/09/13 09:11:11;;;;;;;1999.90;999.90;;;;;;;-144.65;100.00;64500.88;5018435;28;20050;-75
2022/09/13 09:13:56;;;;;;;1999.90;999.90;;;;;;;-144.65;100.00;64500.88;5020848;28;20025;-75
2022/09/13 09:16:33;;;;;;;1999.90;999.90;;;;;;;-144.65;100.00;64500.88;5021489;28;20022;-75
2022/09/13 09:19:08;;;;;;;1999.90;999.90;;;;;;;-144.65;100.00;64500.88;5022311;28;20430;-75
2022/09/13 09:21:35;;;;;;;1999.90;999.90;;;;;;;-144.65;100.00;64500.88;5002209;28;20465;-75
2022/09/13 09:24:03;;;;;;;1999.90;999.90;;;;;;;-144.65;100.00;64500.88;5022512;28;20485;-74
2022/09/13 09:26:29;;;;;;;1999.90;999.90;;;;;;;-144.65;100.00;64500.88;5021500;28;20203;-75
2022/09/13 09:29:04;;;;;;;1999.90;999.90;;;;;;;-144.65;100.00;64500.88;5020171;28;20026;-74
2022/09/13 09:31:31;;;;;;;1999.90;999.90;;;;;;;-144.65;100.00;64500.88;5019589;28;20029;-75
2022/09/13 09:34:21;;;;;;;1999.90;999.90;;;;;;;-144.65;100.00;64500.88;5020285;28;20048;-75
2022/09/13 09:36:55;;;;;;;1999.90;999.90;;;;;;;-144.65;100.00;64500.88;5012438;28;20045;-74
2022/09/13 09:39:24;;;;;;;;;;;;;;;-144.65;100.00;64500.88;5022786;28;20505;-75
2022/09/13 09:41:49;;;;;;;1999.90;999.90;;;;;;;-144.65;100.00;64500.88;5003701;28;19913;-75
2022/09/13 09:44:24;;;;;;;1999.90;999.90;;;;;;;-144.65;100.00;64500.88;5020436;28;20363;-75
2022/09/13 09:46:55;;;;;;;1999.90;999.90;;;;;;;-144.65;100.00;64500.88;5019857;28;20255;-75
2022/09/13 09:52:38;;;;;;;1999.90;999.90;;;;;;;-144.65;100.00;64500.88;5017911;28;20041;-74
2022/09/13 09:55:20;;;;;;;1999.90;999.90;;;;;;;-144.65;100.00;64500.88;5019735;28;20448;-74
2022/09/13 09:58:07;;;;;;;1999.90;999.90;;;;;;;-144.65;100.00;64500.88;5018005;28;20522;-74
2022/09/13 10:00:49;;;;;;;1999.90;999.90;;;;;;;-144.65;100.00;64500.88;5018051;28;20076;-75
2022/09/13 10:03:27;;;;;;;1999.90;999.90;;;;;;;-144.65;100.00;64500.88;5002721;28;20379;-74
2022/09/13 10:06:24;;;;;;;1999.90;999.90;;;;;;;-144.65;100.00;64500.88;5019799;28;20391;-75
2022/09/13 10:09:00;;;;;;;1999.90;999.90;;;;;;;-144.65;100.00;64500.88;4986436;28;20107;-75
2022/09/13 10:11:41;;;;;;;1999.90;999.90;;;;;;;-144.65;100.00;64500.88;5017722;28;20030;-74
2022/09/13 10:14:37;;;;;;;1999.90;999.90;;;;;;;-144.65;100.00;64500.88;5020877;28;20061;-75
2022/09/13 10:17:15;;;;;;;1999.90;999.90;;;;;;;-144.65;100.00;64500.88;5018516;28;20033;-75
2022/09/13 10:19:51;;;;;;;1999.90;999.90;;;;;;;-144.65;100.00;64500.88;5025246;28;20025;-79
2022/09/13 10:22:17;;;;;;;1999.90;999.90;;;;;;;-144.65;100.00;64500.88;5027677;28;20025;-78
2022/09/13 10:24:43;;;;;;;1999.90;999.90;;;;;;;-144.65;100.00;64500.88;5021522;28;20033;-84
2022/09/13 10:27:46;;;;;;;1999.90;999.90;;;;;;;-144.65;100.00;64500.88;5018328;28;20030;-82
2022/09/13 10:30:31;;;;;;;1999.90;999.90;;;;;;;-144.65;100.00;64500.88;4951514;28;20049;-79
2022/09/13 10:32:57;;;;;;;1999.90;999.90;;;;;;;-144.65;100.00;64500.88;5019246;28;20553;-81
2022/09/13 10:35:23;;;;;;;1999.90;999.90;;;;;;;-144.65;100.00;64500.88;5018981;28;20070;-81
2022/09/13 10:37:50;;;;;;;1999.90;999.90;;;;;;;-144.65;100.00;64500.88;5018875;28;20025;-81
2022/09/13 10:40:18;;;;;;;1999.90;999.90;;;;;;;-144.65;100.00;64500.88;5018557;28;20037;-81
2022/09/13 10:42:58;;;;;;;1999.90;999.90;;;;;;;-144.65;100.00;64500.88;5018451;28;20022;-81
2022/09/13 10:45:26;;;;;;;1999.90;999.90;;;;;;;-144.65;100.00;64500.88;5017630;28;20037;-78
2022/09/13 10:48:09;;;;;;;1999.90;999.90;;;;;;;-144.65;100.00;64500.88;5000341;28;20030;-80
2022/09/13 10:50:35;;;;;;;1999.90;999.90;;;;;;;-144.65;100.00;64500.88;5018466;28;20050;-79
2022/09/13 10:53:02;;;;;;;1999.90;999.90;;;;;;;-144.65;100.00;64500.88;5017921;28;20030;-81